Time;durP1;ratioP1;P1;durP2;ratioP2;P2;SDS_P1;SDS_P2;PMS_P1;PMS_P2;Temp;Humidity;BMP_temperature;BMP_pressure;BME280_temperature;BME280_humidity;BME280_pressure;Samples;Min_cycle;Max_cycle;Signal;HPM_P1;HPM_P2
2024/03/21 00:00:24;;;;;;;19.02;10.65;;;;;;;9.83;100.00;101161.16;4966505;28;20026;-74
2024/03/21 00:02:51;;;;;;;23.02;10.75;;;;;;;9.80;100.00;101163.63;4975996;28;20220;-74
2024/03/21 00:05:16;;;;;;;20.63;10.07;;;;;;;9.80;100.00;101161.69;4977539;28;20110;-74
2024/03/21 00:07:48;;;;;;;19.52;9.45;;;;;;;9.85;100.00;101147.00;5006332;28;20068;-74
2024/03/21 00:10:20;;;;;;;19.20;9.17;;;;;;;9.92;100.00;101153.13;4973187;28;20494;-74
2024/03/21 00:12:48;;;;;;;19.77;9.15;;;;;;;9.97;100.00;101155.91;4983313;28;20378;-74
2024/03/21 00:15:15;;;;;;;17.58;8.50;;;;;;;9.93;100.00;101157.56;4979350;28;20030;-73
2024/03/21 00:17:41;;;;;;;14.32;7.78;;;;;;;9.94;100.00;101156.44;4999202;28;20120;-74
2024/03/21 00:20:10;;;;;;;15.63;7.65;;;;;;;9.95;100.00;101160.06;5007549;28;20026;-74
2024/03/21 00:22:42;;;;;;;17.13;7.93;;;;;;;9.96;100.00;101168.09;4969537;28;20038;-74
2024/03/21 00:25:11;;;;;;;15.02;7.93;;;;;;;9.92;100.00;101191.13;4968398;28;20030;-74
2024/03/21 00:27:37;;;;;;;16.77;8.30;;;;;;;9.86;100.00;101181.94;4972761;28;20033;-74
2024/03/21 00:30:04;;;;;;;15.30;7.95;;;;;;;9.87;100.00;101172.53;5001883;28;20042;-74
2024/03/21 00:32:30;;;;;;;16.92;8.15;;;;;;;9.88;100.00;101178.91;4977456;28;20046;-74
2024/03/21 00:34:55;;;;;;;17.63;8.05;;;;;;;9.88;100.00;101173.38;4983629;28;20060;-73
2024/03/21 00:37:24;;;;;;;15.20;7.35;;;;;;;9.90;100.00;101166.44;4965685;28;20026;-74
2024/03/21 00:39:53;;;;;;;14.85;7.15;;;;;;;9.83;100.00;101176.94;4989110;28;20014;-74
2024/03/21 00:42:19;;;;;;;14.82;7.18;;;;;;;9.82;100.00;101176.13;4979103;28;20041;-74
2024/03/21 00:44:45;;;;;;;14.40;7.68;;;;;;;9.80;100.00;101192.19;4993732;28;20115;-74
2024/03/21 00:47:10;;;;;;;12.63;7.22;;;;;;;9.79;100.00;101193.31;4960112;28;20479;-74
2024/03/21 00:49:35;;;;;;;13.57;7.25;;;;;;;9.75;100.00;101191.34;4948503;28;20042;-73
2024/03/21 00:52:01;;;;;;;11.88;6.75;;;;;;;9.74;100.00;101198.84;4977562;28;20062;-74
2024/03/21 00:54:27;;;;;;;12.90;6.68;;;;;;;9.70;100.00;101194.13;4980895;28;20051;-74
2024/03/21 00:56:52;;;;;;;14.77;6.93;;;;;;;9.63;100.00;101183.25;4986136;28;20025;-74
2024/03/21 00:59:21;;;;;;;12.88;7.18;;;;;;;9.62;100.00;101187.16;5001039;28;20034;-74
2024/03/21 01:01:46;;;;;;;14.60;7.45;;;;;;;9.60;100.00;101190.19;4974379;28;20048;-73
2024/03/21 01:04:12;;;;;;;13.88;7.53;;;;;;;9.56;100.00;101182.69;5003590;28;20039;-74
2024/03/21 01:06:37;;;;;;;14.18;7.85;;;;;;;9.48;100.00;101186.81;4981276;28;20034;-74
2024/03/21 01:09:03;;;;;;;19.35;8.93;;;;;;;9.45;100.00;101195.66;4997574;28;20490;-74
2024/03/21 01:11:28;;;;;;;17.60;8.70;;;;;;;9.44;100.00;101190.38;4988636;28;20028;-74
2024/03/21 01:13:54;;;;;;;17.83;8.50;;;;;;;9.43;100.00;101186.78;4987998;28;20034;-74
2024/03/21 01:16:19;;;;;;;18.40;8.45;;;;;;;9.42;100.00;101187.03;4950872;28;20489;-74
2024/03/21 01:18:45;;;;;;;21.05;8.98;;;;;;;9.42;100.00;101187.91;4998155;28;20042;-74
2024/03/21 01:21:10;;;;;;;21.65;8.52;;;;;;;9.43;100.00;101172.91;5009386;28;20042;-74
2024/03/21 01:23:35;;;;;;;15.50;8.20;;;;;;;9.42;100.00;101182.34;5013699;28;20544;-74
2024/03/21 01:26:01;;;;;;;14.93;7.93;;;;;;;9.43;100.00;101188.72;4986814;28;20030;-74
2024/03/21 01:28:27;;;;;;;14.27;7.63;;;;;;;9.39;100.00;101188.44;4980892;28;20701;-74
2024/03/21 01:30:52;;;;;;;13.32;8.07;;;;;;;9.36;100.00;101194.50;4957090;28;20027;-73
2024/03/21 01:33:18;;;;;;;15.77;8.20;;;;;;;9.36;100.00;101192.59;4982828;28;20063;-74
2024/03/21 01:35:44;;;;;;;18.00;8.00;;;;;;;9.35;100.00;101181.75;4980897;28;20054;-73
2024/03/21 01:38:09;;;;;;;14.90;7.22;;;;;;;9.28;100.00;101178.41;4983106;28;20022;-74
2024/03/21 01:40:38;;;;;;;14.80;7.53;;;;;;;9.26;100.00;101172.28;4970788;28;20049;-73
2024/03/21 01:43:27;;;;;;;13.20;6.95;;;;;;;9.31;100.00;101167.59;4976159;28;20026;-73
2024/03/21 01:46:18;;;;;;;13.55;7.40;;;;;;;9.25;100.00;101156.75;4997029;28;20177;-73
2024/03/21 01:48:46;;;;;;;15.52;6.72;;;;;;;9.25;100.00;101160.38;5002701;28;20034;-74
2024/03/21 01:51:12;;;;;;;14.52;6.85;;;;;;;9.25;100.00;101154.81;5012366;28;20042;-73
2024/03/21 01:53:38;;;;;;;11.35;6.18;;;;;;;9.21;100.00;101158.41;4991341;28;20399;-73
2024/03/21 01:56:04;;;;;;;13.13;7.13;;;;;;;9.12;100.00;101160.84;4999118;28;20030;-73
2024/03/21 01:58:29;;;;;;;12.13;7.57;;;;;;;9.10;100.00;101163.03;4987507;28;20026;-73
2024/03/21 02:00:55;;;;;;;14.20;7.32;;;;;;;9.05;100.00;101166.59;4976829;28;20105;-74
2024/03/21 02:03:20;;;;;;;12.40;7.25;;;;;;;9.02;100.00;101163.53;4986885;28;20569;-74
2024/03/21 02:05:46;;;;;;;14.00;6.70;;;;;;;8.98;100.00;101160.50;4993017;28;20038;-74
2024/03/21 02:08:12;;;;;;;13.93;7.28;;;;;;;8.94;100.00;101153.78;4996361;28;20086;-74
2024/03/21 02:10:38;;;;;;;14.77;7.40;;;;;;;8.94;100.00;101159.34;4964805;28;20034;-73
2024/03/21 02:13:05;;;;;;;15.60;6.82;;;;;;;8.85;100.00;101166.50;4960872;28;20698;-73
2024/03/21 02:15:31;;;;;;;13.43;7.25;;;;;;;8.80;100.00;101186.66;4959141;28;20644;-73
2024/03/21 02:17:58;;;;;;;13.73;6.68;;;;;;;8.76;100.00;101201.34;4976840;28;20034;-74
2024/03/21 02:20:23;;;;;;;12.80;6.40;;;;;;;8.70;100.00;101204.06;4944240;28;20041;-73
2024/03/21 02:22:49;;;;;;;17.08;7.63;;;;;;;8.68;100.00;101206.25;4956149;28;20019;-73
2024/03/21 02:25:15;;;;;;;14.32;8.13;;;;;;;8.63;100.00;101208.13;4974108;28;20078;-74
2024/03/21 02:27:41;;;;;;;12.32;7.60;;;;;;;8.61;100.00;101211.19;4975761;28;20391;-74
2024/03/21 02:30:07;;;;;;;15.00;8.27;;;;;;;8.61;100.00;101200.13;4970422;28;20026;-74
2024/03/21 02:32:33;;;;;;;13.38;7.25;;;;;;;8.64;100.00;101205.13;5011249;28;20149;-74
2024/03/21 02:35:00;;;;;;;12.30;7.13;;;;;;;8.55;100.00;101201.16;4981299;28;20116;-73
2024/03/21 02:37:25;;;;;;;16.85;7.40;;;;;;;8.54;100.00;101191.19;4952871;28;20107;-74
2024/03/21 02:39:53;;;;;;;11.27;6.85;;;;;;;8.51;100.00;101200.00;4983897;28;20026;-74
2024/03/21 02:42:19;;;;;;;14.23;7.22;;;;;;;8.52;100.00;101193.38;4979486;28;20030;-73
2024/03/21 02:44:46;;;;;;;15.95;7.47;;;;;;;8.48;100.00;101186.72;4993618;28;20049;-74
2024/03/21 02:47:12;;;;;;;14.35;8.07;;;;;;;8.43;100.00;101181.94;4980217;28;20038;-74
2024/03/21 02:49:37;;;;;;;12.50;6.80;;;;;;;8.44;100.00;101196.63;4996270;28;20038;-74
2024/03/21 02:52:03;;;;;;;14.32;6.97;;;;;;;8.42;100.00;101190.53;4975925;28;20023;-74
2024/03/21 02:54:31;;;;;;;14.57;7.32;;;;;;;8.36;100.00;101191.53;4998892;28;20555;-74
2024/03/21 02:57:00;;;;;;;15.32;7.05;;;;;;;8.34;100.00;101199.28;4986664;28;20117;-74
2024/03/21 02:59:25;;;;;;;16.05;7.45;;;;;;;8.24;100.00;101209.13;4964117;28;20030;-74
2024/03/21 03:01:51;;;;;;;18.35;8.32;;;;;;;8.26;100.00;101209.72;4946859;28;20049;-74
2024/03/21 03:04:17;;;;;;;17.80;8.10;;;;;;;8.20;100.00;101210.75;4976804;28;20031;-74
2024/03/21 03:06:42;;;;;;;15.10;8.13;;;;;;;8.19;100.00;101206.34;4976486;28;20030;-74
2024/03/21 03:09:08;;;;;;;17.50;8.63;;;;;;;8.16;100.00;101215.16;4994085;28;20026;-74
2024/03/21 03:11:36;;;;;;;16.80;9.20;;;;;;;8.16;100.00;101222.59;4993719;28;20034;-74
2024/03/21 03:14:01;;;;;;;17.17;9.40;;;;;;;8.13;100.00;101221.19;4994707;28;20101;-74
2024/03/21 03:16:27;;;;;;;18.38;9.77;;;;;;;8.10;100.00;101213.41;4992562;28;20030;-74
2024/03/21 03:18:52;;;;;;;16.40;9.48;;;;;;;8.15;100.00;101210.72;4993863;28;20048;-74
2024/03/21 03:21:18;;;;;;;21.88;10.25;;;;;;;8.15;100.00;101219.00;4977654;28;20465;-74
2024/03/21 03:23:43;;;;;;;21.30;10.90;;;;;;;8.12;100.00;101219.53;4994609;28;20026;-74
2024/03/21 03:26:09;;;;;;;27.63;11.57;;;;;;;8.11;100.00;101228.06;4995187;28;20027;-74
2024/03/21 03:28:35;;;;;;;21.52;10.10;;;;;;;8.10;100.00;101212.59;4964667;28;20430;-74
2024/03/21 03:31:00;;;;;;;22.92;10.07;;;;;;;8.12;100.00;101216.75;5006277;28;20022;-74
2024/03/21 03:36:10;;;;;;;18.58;10.30;;;;;;;8.11;100.00;101212.34;4989936;28;20120;-74
2024/03/21 03:38:35;;;;;;;19.05;10.50;;;;;;;8.14;100.00;101220.13;4978814;28;20108;-74
2024/03/21 03:41:01;;;;;;;15.50;9.00;;;;;;;8.14;100.00;101222.88;4978880;28;20026;-74
2024/03/21 03:43:26;;;;;;;17.38;9.40;;;;;;;8.14;100.00;101225.66;4972732;28;20041;-74
2024/03/21 03:45:52;;;;;;;17.75;9.57;;;;;;;8.14;100.00;101222.88;4978750;28;20086;-74
2024/03/21 03:48:17;;;;;;;18.38;9.38;;;;;;;8.14;100.00;101228.41;5004134;28;20041;-74
2024/03/21 03:50:43;;;;;;;22.60;10.23;;;;;;;8.15;100.00;101219.00;4959402;28;20518;-74
2024/03/21 03:53:08;;;;;;;19.65;9.85;;;;;;;8.09;100.00;101225.59;4953811;28;20037;-74
2024/03/21 03:55:34;;;;;;;15.35;9.10;;;;;;;8.11;100.00;101226.19;4986742;28;20104;-74
2024/03/21 03:57:59;;;;;;;15.50;9.25;;;;;;;8.12;100.00;101224.22;4975293;28;20022;-74
2024/03/21 04:00:24;;;;;;;15.43;8.82;;;;;;;8.12;100.00;101227.00;4978480;28;20520;-74
2024/03/21 04:02:50;;;;;;;14.93;7.72;;;;;;;8.08;100.00;101246.06;4993725;28;20046;-74
2024/03/21 04:05:17;;;;;;;16.95;8.35;;;;;;;8.07;100.00;101256.28;4977655;28;20399;-73
2024/03/21 04:07:44;;;;;;;15.85;8.98;;;;;;;8.02;100.00;101259.00;4974699;28;20026;-74
2024/03/21 04:10:09;;;;;;;14.20;9.05;;;;;;;7.96;100.00;101253.66;5003837;28;20030;-73
2024/03/21 04:12:35;;;;;;;20.50;9.95;;;;;;;7.94;100.00;101258.59;4984167;28;20049;-73
2024/03/21 04:15:00;;;;;;;13.82;8.40;;;;;;;7.95;100.00;101254.75;4955418;28;20138;-74
2024/03/21 04:17:26;;;;;;;18.15;8.68;;;;;;;7.90;100.00;101255.53;4997029;28;20030;-73
2024/03/21 04:19:51;;;;;;;15.75;9.07;;;;;;;7.88;100.00;101256.88;5005133;28;20152;-74
2024/03/21 04:22:17;;;;;;;20.77;9.52;;;;;;;7.86;100.00;101256.31;5007091;28;20137;-74
2024/03/21 04:24:43;;;;;;;19.30;9.38;;;;;;;7.83;100.00;101266.78;5005728;28;20026;-73
2024/03/21 04:27:09;;;;;;;17.90;9.52;;;;;;;7.88;100.00;101262.41;4983380;28;20100;-74
2024/03/21 04:29:34;;;;;;;16.10;9.50;;;;;;;7.86;100.00;101262.69;5013614;28;20033;-73
2024/03/21 04:32:00;;;;;;;16.27;9.15;;;;;;;7.87;100.00;101255.22;4980101;28;20022;-73
2024/03/21 04:34:25;;;;;;;14.95;9.05;;;;;;;7.87;100.00;101260.75;4962605;28;20033;-73
2024/03/21 04:36:51;;;;;;;13.73;8.85;;;;;;;7.79;100.00;101273.91;4974324;28;20030;-74
2024/03/21 04:39:16;;;;;;;17.65;9.98;;;;;;;7.81;100.00;101280.03;4974930;28;20467;-73
2024/03/21 04:41:42;;;;;;;17.40;9.57;;;;;;;7.87;100.00;101280.09;5003790;28;20101;-73
2024/03/21 04:44:07;;;;;;;16.23;9.07;;;;;;;7.83;100.00;101283.38;4959298;28;20019;-73
2024/03/21 04:46:33;;;;;;;18.67;9.38;;;;;;;7.78;100.00;101291.59;4974010;28;20089;-74
2024/03/21 04:48:58;;;;;;;16.73;9.20;;;;;;;7.78;100.00;101304.59;4955972;28;20034;-73
2024/03/21 04:51:24;;;;;;;17.40;9.25;;;;;;;7.76;100.00;101304.84;4961682;28;20558;-74
2024/03/21 04:53:49;;;;;;;17.02;9.50;;;;;;;7.74;100.00;101300.66;4970956;28;20030;-74
2024/03/21 04:56:14;;;;;;;18.75;9.68;;;;;;;7.70;100.00;101300.34;4961472;28;20042;-74
2024/03/21 04:58:40;;;;;;;17.02;9.85;;;;;;;7.65;100.00;101307.72;4981062;28;20022;-74
2024/03/21 05:01:06;;;;;;;18.73;10.80;;;;;;;7.61;100.00;101310.19;4945661;28;20031;-74
2024/03/21 05:03:31;;;;;;;27.02;14.82;;;;;;;7.54;100.00;101312.28;4961706;28;20062;-74
2024/03/21 05:05:57;;;;;;;22.10;11.07;;;;;;;7.52;100.00;101308.91;4954205;28;20039;-74
2024/03/21 05:08:23;;;;;;;22.67;11.60;;;;;;;7.57;100.00;101309.00;4977492;28;20398;-73
2024/03/21 05:10:48;;;;;;;25.83;13.02;;;;;;;7.56;100.00;101310.09;4966660;28;20114;-74
2024/03/21 05:13:14;;;;;;;22.98;11.00;;;;;;;7.52;100.00;101312.53;4988291;28;20035;-73
2024/03/21 05:15:50;;;;;;;20.17;11.82;;;;;;;7.50;100.00;101311.13;4986387;28;20105;-74
2024/03/21 05:18:15;;;;;;;21.88;11.98;;;;;;;7.49;100.00;101309.44;4977460;28;20030;-74
2024/03/21 05:20:41;;;;;;;23.05;12.13;;;;;;;7.47;100.00;101317.16;4971207;28;20435;-74
2024/03/21 05:23:06;;;;;;;26.67;15.23;;;;;;;7.50;100.00;101330.47;4966936;28;20088;-74
2024/03/21 05:25:34;;;;;;;21.92;11.80;;;;;;;7.48;100.00;101324.34;4988975;28;20438;-74
2024/03/21 05:28:00;;;;;;;29.90;14.75;;;;;;;7.50;100.00;101327.72;4981734;28;20070;-73
2024/03/21 05:30:25;;;;;;;22.45;12.77;;;;;;;7.48;100.00;101327.94;4942154;28;20501;-74
2024/03/21 05:32:51;;;;;;;26.73;15.02;;;;;;;7.45;100.00;101327.63;4964165;28;20018;-74
2024/03/21 05:35:17;;;;;;;24.98;14.32;;;;;;;7.42;100.00;101326.19;4972480;28;20022;-74
2024/03/21 05:37:42;;;;;;;26.20;14.68;;;;;;;7.44;100.00;101328.69;4964171;28;20023;-73
2024/03/21 05:40:09;;;;;;;20.80;14.00;;;;;;;7.41;100.00;101334.72;4988091;28;20056;-74
2024/03/21 05:42:35;;;;;;;26.00;14.40;;;;;;;7.48;100.00;101335.41;4956297;28;20103;-73
2024/03/21 05:45:00;;;;;;;25.95;14.15;;;;;;;7.49;100.00;101340.66;4974044;28;20063;-73
2024/03/21 05:47:26;;;;;;;30.73;17.95;;;;;;;7.47;100.00;101344.81;4964445;28;20061;-74
2024/03/21 05:49:51;;;;;;;30.00;16.80;;;;;;;7.43;100.00;101338.91;4964277;28;20534;-74
2024/03/21 05:52:17;;;;;;;31.23;17.42;;;;;;;7.45;100.00;101336.75;4981121;28;20037;-74
2024/03/21 05:54:48;;;;;;;28.60;15.73;;;;;;;7.50;100.00;101333.22;4983826;28;20147;-74
2024/03/21 05:57:13;;;;;;;23.42;14.18;;;;;;;7.50;100.00;101342.34;4985109;28;20026;-74
2024/03/21 05:59:39;;;;;;;27.77;15.40;;;;;;;7.53;100.00;101346.53;4964017;28;20034;-74
2024/03/21 06:02:04;;;;;;;21.20;13.90;;;;;;;7.52;100.00;101356.78;4979932;28;20054;-74
2024/03/21 06:04:30;;;;;;;28.35;16.35;;;;;;;7.55;100.00;101352.63;4977719;28;20036;-74
2024/03/21 06:06:56;;;;;;;22.75;13.88;;;;;;;7.51;100.00;101351.47;4970699;28;20418;-74
2024/03/21 06:09:23;;;;;;;25.67;16.40;;;;;;;7.49;100.00;101365.53;4976860;28;20090;-74
2024/03/21 06:11:49;;;;;;;30.45;16.73;;;;;;;7.53;100.00;101360.38;4955707;28;20108;-74
2024/03/21 06:14:14;;;;;;;26.63;15.45;;;;;;;7.51;100.00;101368.91;4992604;28;20073;-74
2024/03/21 06:16:40;;;;;;;26.77;15.57;;;;;;;7.53;100.00;101376.94;4995111;28;20046;-74
2024/03/21 06:19:05;;;;;;;27.52;14.80;;;;;;;7.53;100.00;101376.94;4979930;28;20030;-74
2024/03/21 06:21:31;;;;;;;24.95;14.80;;;;;;;7.52;100.00;101378.03;4996056;28;20088;-74
2024/03/21 06:23:56;;;;;;;23.98;15.18;;;;;;;7.54;100.00;101379.44;5001204;28;20034;-74
2024/03/21 06:26:22;;;;;;;28.40;17.33;;;;;;;7.55;100.00;101385.81;4976772;28;20033;-74
2024/03/21 06:28:47;;;;;;;30.52;16.55;;;;;;;7.55;100.00;101380.28;4951470;28;20026;-74
2024/03/21 06:31:13;;;;;;;26.27;15.18;;;;;;;7.60;100.00;101388.66;5016754;28;20038;-74
2024/03/21 06:33:38;;;;;;;25.38;15.45;;;;;;;7.65;100.00;101394.28;4955935;28;20018;-74
2024/03/21 06:36:04;;;;;;;28.52;17.50;;;;;;;7.63;100.00;101399.19;4966778;28;20033;-74
2024/03/21 06:38:30;;;;;;;24.02;14.60;;;;;;;7.67;100.00;101405.09;4979588;28;20026;-74
2024/03/21 06:40:55;;;;;;;27.77;14.98;;;;;;;7.74;100.00;101406.56;4986936;28;20042;-73
2024/03/21 06:43:21;;;;;;;22.45;13.98;;;;;;;7.79;100.00;101414.94;4999694;28;20052;-74
2024/03/21 06:45:56;;;;;;;23.83;14.50;;;;;;;7.86;100.00;101408.41;4999372;28;20022;-74
2024/03/21 06:48:22;;;;;;;24.92;15.07;;;;;;;7.89;100.00;101413.44;4974249;28;20042;-74
2024/03/21 06:50:47;;;;;;;31.33;19.70;;;;;;;7.97;100.00;101424.91;4995944;28;20033;-74
2024/03/21 06:53:13;;;;;;;26.83;15.65;;;;;;;8.04;100.00;101433.00;4981779;28;20026;-74
2024/03/21 06:55:38;;;;;;;26.60;15.65;;;;;;;8.10;100.00;101426.44;4995821;28;20041;-74
2024/03/21 06:58:04;;;;;;;22.08;14.40;;;;;;;8.14;100.00;101422.09;4995495;28;20018;-74
2024/03/21 07:00:29;;;;;;;23.33;15.32;;;;;;;8.21;100.00;101422.72;4995752;28;20042;-74
2024/03/21 07:02:55;;;;;;;26.42;15.30;;;;;;;8.26;100.00;101428.34;4995228;28;20750;-68
2024/03/21 07:05:20;;;;;;;24.95;14.95;;;;;;;8.32;100.00;101418.16;4987498;28;20050;-74
2024/03/21 07:07:46;;;;;;;22.45;14.75;;;;;;;8.39;100.00;101416.09;4963658;28;20057;-74
2024/03/21 07:10:11;;;;;;;24.40;15.27;;;;;;;8.45;100.00;101423.38;4966494;28;20064;-74
2024/03/21 07:12:37;;;;;;;25.80;15.43;;;;;;;8.49;100.00;101418.13;4950175;28;20026;-73
2024/03/21 07:15:04;;;;;;;25.27;16.88;;;;;;;8.53;100.00;101424.03;4990817;28;20063;-74
2024/03/21 07:17:29;;;;;;;26.80;18.60;;;;;;;8.59;100.00;101437.66;4982185;28;20564;-73
2024/03/21 07:19:55;;;;;;;26.00;17.80;;;;;;;8.67;100.00;101439.13;5004297;28;20092;-74
2024/03/21 07:22:20;;;;;;;25.42;16.35;;;;;;;8.73;100.00;101440.88;5008309;28;20054;-74
2024/03/21 07:24:46;;;;;;;25.33;15.38;;;;;;;8.78;100.00;101442.88;4959549;28;20082;-74
2024/03/21 07:27:11;;;;;;;22.80;15.93;;;;;;;8.84;100.00;101436.28;4983090;28;20442;-74
2024/03/21 07:29:37;;;;;;;24.30;17.48;;;;;;;8.91;100.00;101439.66;4984974;28;20030;-74
2024/03/21 07:32:05;;;;;;;29.23;19.38;;;;;;;8.96;100.00;101456.34;4987725;28;20080;-74
2024/03/21 07:34:35;;;;;;;28.38;18.15;;;;;;;9.03;100.00;101462.53;4994339;28;20038;-74
2024/03/21 07:37:00;;;;;;;32.85;19.73;;;;;;;9.10;100.00;101459.56;4984069;28;20423;-74
2024/03/21 07:39:26;;;;;;;26.40;16.63;;;;;;;9.14;100.00;101455.19;4995860;28;20027;-74
2024/03/21 07:41:51;;;;;;;25.63;17.23;;;;;;;9.20;100.00;101461.59;4980027;28;20034;-74
2024/03/21 07:44:17;;;;;;;30.88;20.42;;;;;;;9.28;100.00;101459.19;4944349;28;20066;-74
2024/03/21 07:46:43;;;;;;;32.25;20.10;;;;;;;9.33;100.00;101461.16;4994965;28;20057;-73
2024/03/21 07:49:08;;;;;;;33.35;20.90;;;;;;;9.41;100.00;101463.47;4966604;28;20034;-73
2024/03/21 07:51:37;;;;;;;38.03;22.52;;;;;;;9.43;100.00;101464.03;4996403;28;20038;-74
2024/03/21 07:54:03;;;;;;;32.05;20.02;;;;;;;9.52;100.00;101465.22;4953728;28;20105;-74
2024/03/21 07:56:29;;;;;;;33.17;18.95;;;;;;;9.58;100.00;101479.97;4988661;28;20039;-73
2024/03/21 07:58:54;;;;;;;33.25;20.25;;;;;;;9.66;100.00;101471.16;4942828;28;20034;-73
2024/03/21 08:01:21;;;;;;;32.80;20.17;;;;;;;9.72;100.00;101485.91;4976612;28;20077;-74
2024/03/21 08:03:47;;;;;;;37.17;21.55;;;;;;;9.78;100.00;101491.25;4978345;28;20113;-74
2024/03/21 08:06:12;;;;;;;40.58;21.80;;;;;;;9.78;100.00;101501.53;4959317;28;20042;-74
2024/03/21 08:08:38;;;;;;;51.78;25.92;;;;;;;9.86;100.00;101501.00;4947033;28;20026;-73
2024/03/21 08:11:04;;;;;;;42.63;24.13;;;;;;;9.91;100.00;101512.16;4964571;28;20034;-73
2024/03/21 08:13:29;;;;;;;36.67;21.35;;;;;;;9.94;100.00;101514.41;4988804;28;20045;-73
2024/03/21 08:15:56;;;;;;;33.22;20.55;;;;;;;9.99;100.00;101503.34;4984768;28;20030;-73
2024/03/21 08:18:22;;;;;;;35.30;20.40;;;;;;;10.06;100.00;101514.22;4983547;28;20180;-73
2024/03/21 08:20:47;;;;;;;35.53;20.30;;;;;;;10.09;100.00;101518.41;4946710;28;20026;-73
2024/03/21 08:23:14;;;;;;;37.85;21.05;;;;;;;10.19;100.00;101524.84;4967286;28;20034;-73
2024/03/21 08:25:39;;;;;;;34.10;19.80;;;;;;;10.23;100.00;101533.50;4958624;28;20023;-74
2024/03/21 08:28:05;;;;;;;37.92;19.65;;;;;;;10.32;100.00;101531.09;4982472;28;20050;-74
2024/03/21 08:30:30;;;;;;;38.88;21.13;;;;;;;10.34;100.00;101532.50;4974273;28;20089;-73
2024/03/21 08:32:56;;;;;;;39.63;22.25;;;;;;;10.47;100.00;101542.28;4961236;28;20030;-74
2024/03/21 08:35:21;;;;;;;40.30;22.95;;;;;;;10.51;100.00;101538.72;4967955;28;20022;-74
2024/03/21 08:37:47;;;;;;;42.33;23.30;;;;;;;10.60;100.00;101538.19;4950561;28;20069;-74
2024/03/21 08:40:13;;;;;;;38.55;20.92;;;;;;;10.70;100.00;101538.28;4998549;28;20033;-74
2024/03/21 08:42:40;;;;;;;38.05;19.10;;;;;;;10.80;100.00;101541.06;4960131;28;20034;-74
2024/03/21 08:45:09;;;;;;;40.88;22.27;;;;;;;10.91;100.00;101547.53;4994968;28;20051;-74
2024/03/21 08:47:35;;;;;;;47.33;23.90;;;;;;;11.01;100.00;101546.75;4977129;28;20023;-74
2024/03/21 08:50:00;;;;;;;38.90;21.77;;;;;;;11.12;100.00;101546.50;4961365;28;20722;-74
2024/03/21 08:52:26;;;;;;;46.58;23.30;;;;;;;11.26;100.00;101552.41;4995633;28;20034;-74
2024/03/21 08:54:51;;;;;;;40.10;19.85;;;;;;;11.36;100.00;101555.19;4996923;28;20034;-74
2024/03/21 08:57:17;;;;;;;33.58;19.42;;;;;;;11.48;100.00;101563.31;5014394;28;20030;-74
2024/03/21 08:59:42;;;;;;;41.80;22.30;;;;;;;11.63;100.00;101560.53;5014240;28;20029;-74
2024/03/21 09:02:09;;;;;;;41.13;20.95;;;;;;;11.78;100.00;101558.88;5011530;28;20149;-74
2024/03/21 09:04:34;;;;;;;42.40;20.35;;;;;;;11.92;100.00;101551.69;4988703;28;20073;-74
2024/03/21 09:06:59;;;;;;;37.50;19.85;;;;;;;12.07;100.00;101559.22;4984217;28;20030;-74
2024/03/21 09:09:25;;;;;;;42.28;21.95;;;;;;;12.21;100.00;101565.06;4974268;28;20038;-74
2024/03/21 09:11:52;;;;;;;40.03;21.73;;;;;;;12.35;100.00;101565.34;5009784;28;20471;-74
2024/03/21 09:14:18;;;;;;;45.05;21.80;;;;;;;12.48;100.00;101570.31;4977179;28;20035;-74
2024/03/21 09:16:44;;;;;;;41.25;21.02;;;;;;;12.56;100.00;101566.94;4993959;28;20034;-74
2024/03/21 09:19:09;;;;;;;39.63;21.40;;;;;;;12.66;100.00;101571.69;4990400;28;20033;-74
2024/03/21 09:21:35;;;;;;;41.72;20.88;;;;;;;12.79;100.00;101578.59;4998377;28;20048;-74
2024/03/21 09:24:00;;;;;;;38.70;19.88;;;;;;;12.87;100.00;101583.59;4983502;28;20027;-74
2024/03/21 09:26:26;;;;;;;38.28;19.55;;;;;;;12.97;100.00;101578.84;4963656;28;20037;-74
2024/03/21 09:28:54;;;;;;;35.75;18.63;;;;;;;13.09;100.00;101581.31;4988681;28;20088;-74
2024/03/21 09:31:19;;;;;;;32.47;16.42;;;;;;;13.23;100.00;101586.25;4964054;28;20038;-74
2024/03/21 09:33:45;;;;;;;37.67;19.05;;;;;;;13.34;100.00;101593.50;4987145;28;20049;-74
2024/03/21 09:36:10;;;;;;;31.48;17.45;;;;;;;13.45;100.00;101578.38;4987968;28;20034;-75
2024/03/21 09:38:36;;;;;;;34.83;16.95;;;;;;;13.57;100.00;101587.25;4975991;28;20085;-75
2024/03/21 09:41:02;;;;;;;32.05;16.63;;;;;;;13.69;100.00;101589.69;4977711;28;20551;-75
2024/03/21 09:43:30;;;;;;;32.72;16.35;;;;;;;13.81;100.00;101592.94;4973412;28;20076;-74
2024/03/21 09:45:56;;;;;;;28.77;16.88;;;;;;;13.94;100.00;101585.88;4989522;28;20031;-75
2024/03/21 09:48:22;;;;;;;27.20;14.45;;;;;;;14.05;100.00;101590.25;4960305;28;20038;-75
2024/03/21 09:50:48;;;;;;;24.70;14.45;;;;;;;14.25;100.00;101585.63;4980766;28;20114;-75
2024/03/21 09:53:16;;;;;;;27.05;15.98;;;;;;;14.43;100.00;101592.44;4995121;28;20038;-75
2024/03/21 09:55:44;;;;;;;28.35;17.10;;;;;;;14.53;100.00;101590.41;4968581;28;20065;-74
2024/03/21 09:58:13;;;;;;;27.75;16.85;;;;;;;14.66;100.00;101593.66;4954744;28;20018;-74
2024/03/21 10:00:39;;;;;;;31.17;17.65;;;;;;;14.78;100.00;101593.25;4987627;28;20030;-74
2024/03/21 10:03:05;;;;;;;30.48;16.17;;;;;;;14.92;100.00;101594.22;4981061;28;20054;-74
2024/03/21 10:05:31;;;;;;;24.05;15.57;;;;;;;15.07;100.00;101596.84;4964250;28;20031;-75
2024/03/21 10:07:56;;;;;;;26.42;15.18;;;;;;;15.18;100.00;101605.94;4991348;28;20026;-74
2024/03/21 10:10:22;;;;;;;34.95;17.60;;;;;;;15.28;100.00;101614.22;4996721;28;20023;-74
2024/03/21 10:12:47;;;;;;;29.77;16.02;;;;;;;15.46;100.00;101617.34;4978630;28;20562;-75
2024/03/21 10:15:13;;;;;;;27.88;15.93;;;;;;;15.59;100.00;101627.81;4988472;28;20027;-75
2024/03/21 10:17:39;;;;;;;27.60;16.08;;;;;;;15.70;100.00;101632.16;4980137;28;20026;-75
2024/03/21 10:20:05;;;;;;;25.67;15.60;;;;;;;15.92;100.00;101616.72;5001523;28;20114;-74
2024/03/21 10:22:31;;;;;;;28.58;16.52;;;;;;;16.02;100.00;101617.41;5000205;28;20092;-75
2024/03/21 10:24:57;;;;;;;23.92;15.18;;;;;;;16.17;100.00;101610.72;4988033;28;20034;-75
2024/03/21 10:27:22;;;;;;;21.65;13.65;;;;;;;16.36;100.00;101609.88;5002271;28;20039;-75
2024/03/21 10:29:49;;;;;;;25.17;15.45;;;;;;;16.53;100.00;101598.91;4944403;28;20113;-75
2024/03/21 10:32:18;;;;;;;26.77;15.40;;;;;;;16.65;100.00;101607.63;4995492;28;20026;-75
2024/03/21 10:34:48;;;;;;;23.95;14.35;;;;;;;16.75;100.00;101610.25;5008218;28;20018;-74
2024/03/21 10:37:17;;;;;;;24.15;14.90;;;;;;;16.87;100.00;101606.16;4977992;28;20034;-75
2024/03/21 10:39:47;;;;;;;26.63;16.10;;;;;;;16.96;100.00;101607.09;5006853;28;20027;-74
2024/03/21 10:42:20;;;;;;;24.67;15.52;;;;;;;17.04;100.00;101609.16;4959167;28;20050;-75
2024/03/21 10:44:47;;;;;;;26.15;16.35;;;;;;;17.14;100.00;101608.16;4984626;28;20042;-75
2024/03/21 10:47:13;;;;;;;24.98;13.55;;;;;;;17.24;100.00;101607.91;4988103;28;20061;-75
2024/03/21 10:49:38;;;;;;;30.92;16.27;;;;;;;17.28;100.00;101613.75;4998156;28;20041;-74
2024/03/21 10:52:05;;;;;;;24.08;14.10;;;;;;;17.32;100.00;101615.63;4974920;28;20047;-75
2024/03/21 10:54:39;;;;;;;26.58;15.25;;;;;;;17.38;100.00;101608.78;4988056;28;20612;-75
2024/03/21 10:57:16;;;;;;;25.63;14.50;;;;;;;17.50;100.00;101593.34;4973223;28;20057;-75
2024/03/21 10:59:43;;;;;;;23.13;14.45;;;;;;;17.59;100.00;101600.72;4977467;28;20034;-75
2024/03/21 11:02:14;;;;;;;20.35;12.98;;;;;;;17.71;100.00;101602.97;4978601;28;20562;-74
2024/03/21 11:04:41;;;;;;;20.02;12.43;;;;;;;17.84;100.00;101601.31;4990705;28;20035;-74
2024/03/21 11:07:07;;;;;;;18.60;11.52;;;;;;;17.91;100.00;101601.69;4971014;28;20498;-74